Time;durP1;ratioP1;P1;durP2;ratioP2;P2;SDS_P1;SDS_P2;PMS_P1;PMS_P2;Temp;Humidity;BMP_temperature;BMP_pressure;BME280_temperature;BME280_humidity;BME280_pressure;Samples;Min_cycle;Max_cycle;Signal;HPM_P1;HPM_P2
2022/03/08 05:33:14;;;;;;;19.13;10.43;;;4.10;96.70;;;;;;4960619;28;20968;-78
2022/03/08 05:35:46;;;;;;;12.77;9.25;;;3.90;96.70;;;;;;5010910;28;20057;-84
2022/03/08 05:38:14;;;;;;;14.82;10.00;;;3.80;96.70;;;;;;4969717;28;20058;-84
2022/03/08 05:40:44;;;;;;;14.70;9.63;;;3.90;96.70;;;;;;5007826;28;20042;-83
2022/03/08 05:43:13;;;;;;;15.40;9.95;;;3.90;96.70;;;;;;5002526;28;20051;-85
2022/03/08 05:45:41;;;;;;;16.20;9.35;;;4.00;96.70;;;;;;4982362;28;20105;-80
2022/03/08 05:48:10;;;;;;;14.25;10.00;;;4.00;96.70;;;;;;4995088;28;20150;-80
2022/03/08 05:50:39;;;;;;;16.27;9.90;;;4.00;96.70;;;;;;4964608;28;20138;-80
2022/03/08 05:53:09;;;;;;;14.07;10.02;;;3.90;96.70;;;;;;4971346;28;20051;-80
2022/03/08 05:55:37;;;;;;;16.02;10.35;;;3.90;96.70;;;;;;4984651;28;20599;-80
2022/03/08 05:58:06;;;;;;;18.70;10.60;;;3.90;96.70;;;;;;4964680;28;20174;-79
2022/03/08 06:00:34;;;;;;;16.90;10.70;;;3.90;96.70;;;;;;4964431;28;20085;-80
2022/03/08 06:03:03;;;;;;;16.15;10.52;;;3.90;96.70;;;;;;4965222;28;20166;-80
2022/03/08 06:05:32;;;;;;;18.98;11.77;;;3.80;96.70;;;;;;4967413;28;20053;-81
2022/03/08 06:08:00;;;;;;;18.40;10.98;;;3.80;96.70;;;;;;4966926;28;20488;-79
2022/03/08 06:10:31;;;;;;;16.52;10.18;;;3.90;96.70;;;;;;4995613;28;20116;-80
2022/03/08 06:13:00;;;;;;;16.42;9.65;;;4.10;96.70;;;;;;4996565;28;20568;-80
2022/03/08 06:15:28;;;;;;;13.38;9.75;;;4.30;96.70;;;;;;5000337;28;20566;-80
2022/03/08 06:17:57;;;;;;;17.80;11.00;;;4.40;96.70;;;;;;4999274;28;20082;-80
2022/03/08 06:20:25;;;;;;;16.17;10.30;;;4.50;96.70;;;;;;4965339;28;20085;-79
2022/03/08 06:22:54;;;;;;;19.30;10.70;;;4.60;96.70;;;;;;4965474;28;20043;-80
2022/03/08 06:25:23;;;;;;;34.47;17.63;;;4.70;96.70;;;;;;4966330;28;20535;-80
2022/03/08 06:27:53;;;;;;;48.88;23.00;;;4.60;96.70;;;;;;4968308;28;20408;-80
2022/03/08 06:30:21;;;;;;;39.60;19.10;;;4.50;96.70;;;;;;4993327;28;20074;-80
2022/03/08 06:32:51;;;;;;;28.48;15.40;;;4.50;96.70;;;;;;4981700;28;20041;-80
2022/03/08 06:35:19;;;;;;;28.90;14.98;;;4.60;96.70;;;;;;4991475;28;20055;-80
2022/03/08 06:37:48;;;;;;;23.08;14.10;;;4.60;96.70;;;;;;4968044;28;20053;-80
2022/03/08 06:40:16;;;;;;;24.77;13.40;;;4.70;96.70;;;;;;4994829;28;20210;-86
2022/03/08 06:42:45;;;;;;;21.52;11.60;;;4.70;96.70;;;;;;5002291;28;20570;-86
2022/03/08 06:45:15;;;;;;;21.45;11.88;;;4.80;96.70;;;;;;4967607;28;20051;-85
2022/03/08 06:47:43;;;;;;;15.05;9.10;;;4.90;96.70;;;;;;4967157;28;20055;-85
2022/03/08 06:50:12;;;;;;;15.35;9.32;;;5.00;96.70;;;;;;4967064;28;20195;-83
2022/03/08 06:52:40;;;;;;;10.85;7.63;;;5.00;96.70;;;;;;5019639;28;20460;-85
2022/03/08 06:55:10;;;;;;;10.50;7.70;;;5.10;96.70;;;;;;4983463;28;20338;-85
2022/03/08 06:57:38;;;;;;;11.95;6.47;;;5.20;96.70;;;;;;4966264;28;20151;-86
2022/03/08 07:00:07;;;;;;;10.80;6.75;;;5.20;96.70;;;;;;4984652;28;20051;-85
2022/03/08 07:02:37;;;;;;;8.77;6.10;;;5.30;96.70;;;;;;4971735;28;20047;-85
2022/03/08 07:05:06;;;;;;;10.63;6.55;;;5.50;96.70;;;;;;5003147;28;20046;-85
2022/03/08 07:07:34;;;;;;;9.40;5.90;;;5.50;96.70;;;;;;4970683;28;20046;-85
2022/03/08 07:10:03;;;;;;;9.35;6.15;;;5.60;96.70;;;;;;5000733;28;20070;-85
2022/03/08 07:12:31;;;;;;;8.43;6.10;;;5.70;96.70;;;;;;4974443;28;20042;-84
2022/03/08 07:14:59;;;;;;;9.30;5.70;;;5.70;96.70;;;;;;4967625;28;20053;-85
2022/03/08 07:17:28;;;;;;;9.00;5.30;;;5.70;96.70;;;;;;5018141;28;20038;-85
2022/03/08 07:19:57;;;;;;;7.10;5.40;;;5.80;96.70;;;;;;4987462;28;20459;-84
2022/03/08 07:22:25;;;;;;;7.10;5.32;;;5.80;96.70;;;;;;4985972;28;20035;-85
2022/03/08 07:24:54;;;;;;;11.10;5.22;;;5.90;96.70;;;;;;5002474;28;20053;-85
2022/03/08 07:27:22;;;;;;;9.40;5.40;;;6.00;96.70;;;;;;4972260;28;20034;-85
2022/03/08 07:29:51;;;;;;;6.53;4.40;;;6.00;96.70;;;;;;4985304;28;20081;-85
2022/03/08 07:32:19;;;;;;;5.18;4.13;;;6.10;96.70;;;;;;4970003;28;20476;-85
2022/03/08 07:34:48;;;;;;;6.45;4.13;;;6.10;96.70;;;;;;4968980;28;20055;-85
2022/03/08 07:37:18;;;;;;;5.97;4.35;;;6.20;96.70;;;;;;4967439;28;20046;-85
2022/03/08 07:39:46;;;;;;;5.78;3.88;;;6.30;96.70;;;;;;4970870;28;20039;-86
2022/03/08 07:42:14;;;;;;;5.90;3.40;;;6.30;96.70;;;;;;4985503;28;20042;-85
2022/03/08 07:44:43;;;;;;;5.30;3.50;;;6.40;96.70;;;;;;4985375;28;20078;-86
2022/03/08 07:47:11;;;;;;;7.97;3.50;;;6.40;96.70;;;;;;4988638;28;20062;-85
2022/03/08 07:49:39;;;;;;;5.75;3.33;;;6.50;96.60;;;;;;4970459;28;20051;-85
2022/03/08 07:52:08;;;;;;;5.43;3.28;;;6.50;96.50;;;;;;4969394;28;20493;-86
2022/03/08 07:54:37;;;;;;;4.93;2.95;;;6.60;95.90;;;;;;4985579;28;20078;-85
2022/03/08 07:57:06;;;;;;;4.93;2.80;;;6.70;95.90;;;;;;5009340;28;20043;-86
2022/03/08 07:59:34;;;;;;;6.63;3.13;;;6.70;95.20;;;;;;5003914;28;20563;-83
2022/03/08 08:02:03;;;;;;;4.43;3.10;;;6.80;95.10;;;;;;5001436;28;20043;-82
2022/03/08 08:04:32;;;;;;;6.18;3.10;;;6.80;95.70;;;;;;4969293;28;20042;-82
2022/03/08 08:07:00;;;;;;;4.65;2.90;;;6.90;94.40;;;;;;4967929;28;20061;-83
2022/03/08 08:09:28;;;;;;;3.78;3.03;;;6.90;94.50;;;;;;5001759;28;20043;-85
2022/03/08 08:11:58;;;;;;;4.35;2.85;;;6.90;93.40;;;;;;4968061;28;20132;-85
2022/03/08 08:14:26;;;;;;;5.47;2.58;;;7.00;93.20;;;;;;5000521;28;20058;-85
2022/03/08 08:16:55;;;;;;;3.95;2.63;;;7.00;92.80;;;;;;4985441;28;20043;-83
2022/03/08 08:19:23;;;;;;;5.20;2.78;;;7.00;92.70;;;;;;4983369;28;20051;-83
2022/03/08 08:21:51;;;;;;;4.35;2.50;;;7.00;92.90;;;;;;4968306;28;20046;-84
2022/03/08 08:24:20;;;;;;;4.80;2.55;;;7.10;92.70;;;;;;4968385;28;20093;-83
2022/03/08 08:26:48;;;;;;;4.88;2.47;;;7.20;93.40;;;;;;4999910;28;20051;-87
2022/03/08 08:29:18;;;;;;;4.43;2.80;;;7.30;93.60;;;;;;4983683;28;20050;-83
2022/03/08 08:31:48;;;;;;;4.20;2.53;;;7.30;93.20;;;;;;5001247;28;20165;-85
2022/03/08 08:34:16;;;;;;;4.35;2.63;;;7.40;93.20;;;;;;4969182;28;20061;-84
2022/03/08 08:36:46;;;;;;;3.53;2.50;;;7.40;92.80;;;;;;4997632;28;20074;-84
2022/03/08 08:39:20;;;;;;;4.20;2.40;;;7.50;92.70;;;;;;4985451;28;20097;-87
2022/03/08 08:41:48;;;;;;;5.60;2.92;;;7.50;92.40;;;;;;4969009;28;20077;-87
2022/03/08 08:44:19;;;;;;;3.10;2.33;;;7.70;92.30;;;;;;4982918;28;20093;-82
2022/03/08 08:46:47;;;;;;;5.50;2.75;;;7.70;92.60;;;;;;4979280;28;20054;-82
2022/03/08 08:49:16;;;;;;;3.92;2.80;;;7.70;92.10;;;;;;4972096;28;20309;-81
2022/03/08 08:51:44;;;;;;;4.80;2.80;;;7.80;92.60;;;;;;4970910;28;20643;-81
2022/03/08 08:54:12;;;;;;;4.32;3.08;;;7.90;92.50;;;;;;4982306;28;20046;-82
2022/03/08 08:56:41;;;;;;;4.25;2.85;;;8.00;92.10;;;;;;4968402;28;20089;-82
2022/03/08 08:59:10;;;;;;;3.00;2.30;;;8.10;91.50;;;;;;4998296;28;20062;-81
2022/03/08 09:01:40;;;;;;;6.03;2.97;;;8.10;91.30;;;;;;4967399;28;20043;-82
2022/03/08 09:04:08;;;;;;;5.60;2.92;;;8.10;91.30;;;;;;4968479;28;20054;-84
2022/03/08 09:06:37;;;;;;;5.82;2.90;;;8.10;90.90;;;;;;4983855;28;20049;-83
2022/03/08 09:09:05;;;;;;;4.05;2.50;;;8.10;90.80;;;;;;4969461;28;20062;-82
2022/03/08 09:11:36;;;;;;;4.30;2.72;;;8.10;90.40;;;;;;4995294;28;20047;-83
2022/03/08 09:14:05;;;;;;;4.82;3.10;;;8.20;90.40;;;;;;4971672;28;20089;-83
2022/03/08 09:16:33;;;;;;;4.15;2.90;;;8.20;89.70;;;;;;4998922;28;20137;-84
2022/03/08 09:19:03;;;;;;;4.32;2.53;;;8.30;89.70;;;;;;5000685;28;20066;-84
2022/03/08 09:21:32;;;;;;;3.80;2.70;;;8.50;89.50;;;;;;4968657;28;20101;-86
2022/03/08 09:24:00;;;;;;;3.85;2.72;;;8.40;89.00;;;;;;4988598;28;20046;-85
2022/03/08 09:26:28;;;;;;;4.15;3.15;;;8.40;87.90;;;;;;4967168;28;20221;-86
2022/03/08 09:29:00;;;;;;;3.65;2.75;;;8.30;88.00;;;;;;5005682;28;20141;-86
2022/03/08 09:31:29;;;;;;;3.75;3.00;;;8.40;88.80;;;;;;4991180;28;20046;-86
2022/03/08 09:33:57;;;;;;;5.68;3.22;;;8.50;88.80;;;;;;4981395;28;20112;-85
2022/03/08 09:36:28;;;;;;;4.15;3.03;;;8.60;87.60;;;;;;4977094;28;20042;-86
2022/03/08 09:38:58;;;;;;;4.60;3.20;;;8.70;87.20;;;;;;4992685;28;20440;-86
2022/03/08 09:41:28;;;;;;;4.43;3.13;;;8.80;87.00;;;;;;5007519;28;20049;-86
2022/03/08 09:44:00;;;;;;;4.72;3.10;;;8.90;87.40;;;;;;4975114;28;20085;-86
2022/03/08 09:46:28;;;;;;;6.05;3.17;;;9.00;87.30;;;;;;5003621;28;20120;-86
2022/03/08 09:48:57;;;;;;;4.55;3.15;;;9.20;87.10;;;;;;4971615;28;20100;-87
2022/03/08 09:51:27;;;;;;;4.70;3.17;;;9.30;85.70;;;;;;4987293;28;20046;-86
2022/03/08 09:53:55;;;;;;;5.28;2.97;;;9.30;85.50;;;;;;4970112;28;20054;-85
2022/03/08 09:56:25;;;;;;;4.90;3.25;;;9.30;85.40;;;;;;4991092;28;20129;-87
2022/03/08 09:58:53;;;;;;;15.13;7.10;;;9.40;86.00;;;;;;5003580;28;20066;-84
2022/03/08 10:01:21;;;;;;;8.35;4.90;;;9.40;85.90;;;;;;4987635;28;20134;-84
2022/03/08 10:03:50;;;;;;;6.95;4.47;;;9.60;85.20;;;;;;4972576;28;20054;-84
2022/03/08 10:06:19;;;;;;;7.10;5.05;;;9.50;85.00;;;;;;4988590;28;20073;-88
2022/03/08 10:08:48;;;;;;;4.47;3.45;;;9.70;85.40;;;;;;4987726;28;20046;-84
2022/03/08 10:11:17;;;;;;;4.97;3.40;;;9.80;85.00;;;;;;4986685;28;20046;-84
2022/03/08 10:13:50;;;;;;;4.43;3.30;;;9.70;84.90;;;;;;4987530;28;20695;-84
2022/03/08 10:16:27;;;;;;;4.63;3.28;;;9.70;84.40;;;;;;4972018;28;20051;-84
2022/03/08 10:18:58;;;;;;;6.30;3.17;;;9.80;84.30;;;;;;4998670;28;20062;-83
2022/03/08 10:21:32;;;;;;;4.80;3.45;;;9.90;84.90;;;;;;5005693;28;20046;-84
2022/03/08 10:24:04;;;;;;;6.05;3.90;;;9.70;84.00;;;;;;4989887;28;20065;-84
2022/03/08 10:26:43;;;;;;;4.82;3.38;;;9.80;83.70;;;;;;4975375;28;20050;-84
2022/03/08 10:29:12;;;;;;;4.65;3.17;;;9.80;84.00;;;;;;4968966;28;20050;-86
2022/03/08 10:31:41;;;;;;;6.28;4.15;;;9.90;83.60;;;;;;4974622;28;20197;-83
2022/03/08 10:34:15;;;;;;;5.30;3.83;;;10.00;84.00;;;;;;5004539;28;20062;-84
2022/03/08 10:37:02;;;;;;;6.28;3.67;;;10.20;83.50;;;;;;4976940;28;20077;-83
2022/03/08 10:39:33;;;;;;;5.53;3.63;;;10.30;82.60;;;;;;4986041;28;20050;-83
2022/03/08 10:42:03;;;;;;;4.90;3.60;;;10.40;82.70;;;;;;4992160;28;20073;-84
2022/03/08 10:44:40;;;;;;;10.23;3.97;;;10.50;82.70;;;;;;4989147;28;20049;-85
2022/03/08 10:47:10;;;;;;;4.95;3.35;;;10.50;82.50;;;;;;4979448;28;20157;-84
2022/03/08 10:49:50;;;;;;;5.47;4.03;;;10.60;83.00;;;;;;4978826;28;20046;-85
2022/03/08 10:52:26;;;;;;;5.80;3.65;;;10.60;82.10;;;;;;5006822;28;20050;-84
2022/03/08 10:55:09;;;;;;;4.32;3.05;;;10.70;81.80;;;;;;5023807;28;20504;-86
2022/03/08 10:57:38;;;;;;;3.95;2.90;;;10.70;81.20;;;;;;5000522;28;20046;-86
2022/03/08 11:00:20;;;;;;;6.40;3.80;;;10.80;81.50;;;;;;4989681;28;20129;-84
2022/03/08 11:02:51;;;;;;;6.05;3.67;;;10.80;81.50;;;;;;4993684;28;20053;-84
2022/03/08 11:05:22;;;;;;;6.05;3.83;;;10.80;81.10;;;;;;4990956;28;20559;-85
2022/03/08 11:07:51;;;;;;;5.97;3.88;;;10.90;81.50;;;;;;4992027;28;20050;-85
2022/03/08 11:10:22;;;;;;;6.18;3.50;;;11.20;81.20;;;;;;4972086;28;20054;-85
2022/03/08 11:12:52;;;;;;;6.40;4.40;;;11.30;80.70;;;;;;5005040;28;20046;-85
2022/03/08 11:15:21;;;;;;;6.32;3.88;;;11.40;80.70;;;;;;4989674;28;20042;-84
2022/03/08 11:17:52;;;;;;;5.40;4.05;;;11.40;80.80;;;;;;4991013;28;20057;-84
2022/03/08 11:20:23;;;;;;;7.60;4.20;;;11.40;80.90;;;;;;4992331;28;20042;-84
2022/03/08 11:22:54;;;;;;;7.03;3.80;;;11.30;80.80;;;;;;4980410;28;20349;-84
2022/03/08 11:25:26;;;;;;;6.93;3.88;;;11.40;80.90;;;;;;4977935;28;20042;-85
2022/03/08 11:28:14;;;;;;;7.03;4.25;;;11.40;79.70;;;;;;4991240;28;20050;-85
2022/03/08 11:30:45;;;;;;;10.30;4.95;;;11.50;79.50;;;;;;4974844;28;20074;-84
2022/03/08 11:33:23;;;;;;;4.65;3.70;;;11.50;79.40;;;;;;4990564;28;20047;-84
2022/03/08 11:35:57;;;;;;;4.53;3.70;;;11.70;79.60;;;;;;5007077;28;20068;-84
2022/03/08 11:38:26;;;;;;;5.38;3.83;;;11.60;79.40;;;;;;4990510;28;20038;-84
2022/03/08 11:40:58;;;;;;;5.43;3.83;;;11.60;79.20;;;;;;4992954;28;20046;-84
2022/03/08 11:43:38;;;;;;;4.53;3.88;;;11.70;78.70;;;;;;4988506;28;20046;-83
2022/03/08 11:46:15;;;;;;;4.45;3.53;;;11.80;79.00;;;;;;4990865;28;20560;-85
2022/03/08 11:48:53;;;;;;;6.03;3.67;;;11.80;78.90;;;;;;4973877;28;20046;-84
2022/03/08 11:51:21;;;;;;;5.57;3.80;;;12.00;77.80;;;;;;4989309;28;20042;-84
2022/03/08 11:54:02;;;;;;;5.47;3.75;;;12.00;77.30;;;;;;5008907;28;20109;-83
2022/03/08 11:56:43;;;;;;;6.88;4.07;;;12.00;77.70;;;;;;4992878;28;20057;-83
2022/03/08 11:59:12;;;;;;;5.80;3.08;;;12.00;77.30;;;;;;4992814;28;20291;-83
2022/03/08 12:01:41;;;;;;;4.45;3.60;;;12.10;77.40;;;;;;4991799;28;20121;-83
2022/03/08 12:04:12;;;;;;;5.20;3.75;;;12.10;77.00;;;;;;4990776;28;20042;-83
2022/03/08 12:06:47;;;;;;;5.90;3.05;;;12.20;77.20;;;;;;5012959;28;20046;-84
2022/03/08 12:09:18;;;;;;;4.78;3.25;;;12.30;77.00;;;;;;4996598;28;20046;-83
2022/03/08 12:11:52;;;;;;;4.57;2.92;;;12.40;76.90;;;;;;4972544;28;20470;-83
2022/03/08 12:14:26;;;;;;;4.03;3.10;;;12.40;76.90;;;;;;5002471;28;20082;-83
2022/03/08 12:17:07;;;;;;;5.82;3.47;;;12.60;77.50;;;;;;4988346;28;20047;-83
2022/03/08 12:19:39;;;;;;;6.38;4.05;;;12.50;76.80;;;;;;5005690;28;20137;-83
2022/03/08 12:22:13;;;;;;;5.85;3.70;;;12.40;76.40;;;;;;4986662;28;20577;-82
2022/03/08 12:24:47;;;;;;;5.45;3.65;;;12.50;77.60;;;;;;4992634;28;20567;-83
2022/03/08 12:27:19;;;;;;;4.93;3.13;;;12.60;77.00;;;;;;4978421;28;20504;-83
2022/03/08 12:30:01;;;;;;;5.65;3.35;;;12.50;75.70;;;;;;5004199;28;20057;-83
2022/03/08 12:32:35;;;;;;;4.05;3.13;;;12.70;75.70;;;;;;5004571;28;20054;-83
2022/03/08 12:35:13;;;;;;;6.30;3.53;;;12.70;75.50;;;;;;5001682;28;20047;-83
2022/03/08 12:38:02;;;;;;;4.80;3.65;;;12.70;75.80;;;;;;5002970;28;20073;-83
2022/03/08 12:40:33;;;;;;;5.07;3.80;;;12.70;75.30;;;;;;4989740;28;20042;-83
2022/03/08 12:43:07;;;;;;;5.43;3.38;;;12.80;76.30;;;;;;5021433;28;20097;-83
2022/03/08 12:45:44;;;;;;;6.30;3.65;;;13.00;76.10;;;;;;4993207;28;20042;-83
2022/03/08 12:48:14;;;;;;;7.38;3.50;;;13.20;75.40;;;;;;4992352;28;20054;-83
2022/03/08 12:50:45;;;;;;;4.80;3.10;;;13.40;75.10;;;;;;5009601;28;20121;-83
2022/03/08 12:53:17;;;;;;;3.65;2.97;;;13.30;74.30;;;;;;5002556;28;20488;-83
2022/03/08 12:55:48;;;;;;;6.65;3.03;;;13.20;74.10;;;;;;4988779;28;20046;-83
2022/03/08 12:58:19;;;;;;;3.67;2.80;;;13.20;74.10;;;;;;4980033;28;20689;-83
2022/03/08 13:00:52;;;;;;;3.25;2.60;;;13.20;74.80;;;;;;5005721;28;20050;-83
2022/03/08 13:03:23;;;;;;;3.67;2.67;;;13.30;74.10;;;;;;4988293;28;20038;-83
2022/03/08 13:05:54;;;;;;;7.63;2.90;;;13.20;73.60;;;;;;5001908;28;20850;-83
2022/03/08 13:08:25;;;;;;;5.72;2.95;;;13.30;73.60;;;;;;4974422;28;20051;-83
2022/03/08 13:10:56;;;;;;;4.30;2.75;;;13.30;73.70;;;;;;4981000;28;20101;-84
2022/03/08 13:13:46;;;;;;;5.22;2.90;;;13.30;73.80;;;;;;5001206;28;20069;-83
2022/03/08 13:16:19;;;;;;;3.63;2.47;;;13.40;72.70;;;;;;5004886;28;20074;-83
2022/03/08 13:18:49;;;;;;;4.82;2.70;;;13.40;74.40;;;;;;4973684;28;20054;-84
2022/03/08 13:21:18;;;;;;;2.95;2.28;;;13.30;73.90;;;;;;5002195;28;20046;-84
2022/03/08 13:23:48;;;;;;;4.43;2.80;;;13.40;73.50;;;;;;4999111;28;20085;-83
2022/03/08 13:29:17;;;;;;;4.15;2.65;;;13.30;73.40;;;;;;4988120;28;20121;-84
2022/03/08 13:31:47;;;;;;;4.20;2.30;;;13.30;73.50;;;;;;4989443;28;20046;-84
2022/03/08 13:34:16;;;;;;;3.05;2.30;;;13.40;73.70;;;;;;4987604;28;20166;-84
2022/03/08 13:36:54;;;;;;;3.45;2.22;;;13.50;73.80;;;;;;4988273;28;20070;-84
2022/03/08 13:39:22;;;;;;;6.10;2.22;;;13.50;73.90;;;;;;4987207;28;20109;-85
2022/03/08 13:41:51;;;;;;;4.97;2.38;;;13.60;74.30;;;;;;4971665;28;20452;-85
2022/03/08 13:44:23;;;;;;;4.63;2.35;;;13.60;73.90;;;;;;5004622;28;20043;-86
2022/03/08 13:46:53;;;;;;;3.72;2.72;;;13.50;72.60;;;;;;5011312;28;20931;-86
2022/03/08 13:49:23;;;;;;;3.00;2.28;;;13.50;72.70;;;;;;4970873;28;20049;-84
2022/03/08 13:51:57;;;;;;;5.65;2.70;;;13.50;72.40;;;;;;5001840;28;20606;-86
2022/03/08 13:54:26;;;;;;;4.03;2.38;;;13.60;73.30;;;;;;5025239;28;20447;-85
2022/03/08 13:56:55;;;;;;;4.30;2.58;;;13.60;72.70;;;;;;4988075;28;20034;-86
2022/03/08 13:59:27;;;;;;;7.57;2.20;;;13.60;72.20;;;;;;4972437;28;20499;-86
2022/03/08 14:01:59;;;;;;;7.03;2.60;;;13.60;71.80;;;;;;4987363;28;20046;-86
2022/03/08 14:04:28;;;;;;;4.07;2.13;;;13.70;72.30;;;;;;4988068;28;20038;-85
2022/03/08 14:06:57;;;;;;;3.47;2.22;;;13.70;71.70;;;;;;4990490;28;20187;-85
2022/03/08 14:09:25;;;;;;;4.15;2.50;;;13.70;71.40;;;;;;4976484;28;20053;-83
2022/03/08 14:11:54;;;;;;;4.15;2.83;;;13.60;71.60;;;;;;4988273;28;20070;-84
2022/03/08 14:14:24;;;;;;;3.88;2.33;;;13.60;71.40;;;;;;4992568;28;20046;-85
2022/03/08 14:16:55;;;;;;;3.13;2.28;;;13.50;70.20;;;;;;4994623;28;20054;-85
2022/03/08 14:19:39;;;;;;;5.32;2.22;;;13.50;70.40;;;;;;5011253;28;20054;-85
2022/03/08 14:22:08;;;;;;;3.70;2.85;;;13.60;70.80;;;;;;5006765;28;20054;-85
2022/03/08 14:24:37;;;;;;;5.80;2.28;;;13.80;71.10;;;;;;5010176;28;20038;-84
2022/03/08 14:27:07;;;;;;;5.03;2.20;;;14.00;70.80;;;;;;4981489;28;20050;-87
2022/03/08 14:29:36;;;;;;;7.03;2.00;;;14.10;70.10;;;;;;5007243;28;20050;-85
2022/03/08 14:32:08;;;;;;;3.83;2.13;;;14.10;69.80;;;;;;4974606;28;20042;-86
2022/03/08 14:34:38;;;;;;;3.15;2.10;;;14.10;69.00;;;;;;5006711;28;20548;-84
2022/03/08 14:37:07;;;;;;;3.63;2.00;;;14.40;69.90;;;;;;4973525;28;20085;-85
2022/03/08 14:39:44;;;;;;;4.13;2.08;;;14.50;68.90;;;;;;5015481;28;20042;-85
2022/03/08 14:42:15;;;;;;;4.63;2.10;;;14.60;68.90;;;;;;4990080;28;20591;-85
2022/03/08 14:44:45;;;;;;;3.80;1.80;;;14.80;69.00;;;;;;5007715;28;20042;-84
2022/03/08 14:47:17;;;;;;;10.52;3.58;;;14.90;68.40;;;;;;5009428;28;20066;-85
2022/03/08 14:49:47;;;;;;;6.30;2.25;;;14.80;67.20;;;;;;5007264;28;20054;-85
2022/03/08 14:52:17;;;;;;;3.85;1.70;;;15.00;66.70;;;;;;5005960;28;20050;-84
2022/03/08 14:54:46;;;;;;;2.63;1.92;;;15.20;66.60;;;;;;5021858;28;20058;-84
2022/03/08 14:57:34;;;;;;;2.15;1.50;;;15.50;66.10;;;;;;5002298;28;20046;-85
2022/03/08 15:00:04;;;;;;;3.63;1.90;;;15.70;65.70;;;;;;4989711;28;20057;-84
2022/03/08 15:02:33;;;;;;;2.28;1.70;;;16.00;65.90;;;;;;4990564;28;20053;-85
2022/03/08 15:05:03;;;;;;;2.00;1.45;;;16.30;65.40;;;;;;4991058;28;20062;-85
2022/03/08 15:07:31;;;;;;;3.08;1.50;;;16.40;65.10;;;;;;5005733;28;20046;-86
2022/03/08 15:10:01;;;;;;;2.08;1.30;;;16.10;64.50;;;;;;4982598;28;20145;-85
2022/03/08 15:12:29;;;;;;;5.18;1.58;;;16.20;64.00;;;;;;5005161;28;20034;-85
2022/03/08 15:14:57;;;;;;;3.70;1.70;;;16.40;64.10;;;;;;4982466;28;20060;-85
2022/03/08 15:17:25;;;;;;;2.65;1.50;;;16.80;64.20;;;;;;4990857;28;20065;-85
2022/03/08 15:19:55;;;;;;;1.98;1.20;;;17.20;63.80;;;;;;5005703;28;20053;-86
2022/03/08 15:22:23;;;;;;;2.80;1.65;;;17.30;63.10;;;;;;4992146;28;20142;-85
2022/03/08 15:24:52;;;;;;;2.30;0.98;;;17.60;62.40;;;;;;4972978;28;20038;-84
2022/03/08 15:27:20;;;;;;;2.92;1.25;;;17.90;62.00;;;;;;4972532;28;20042;-84
2022/03/08 15:29:48;;;;;;;2.40;1.15;;;18.30;61.80;;;;;;4973955;28;20057;-86
2022/03/08 15:32:16;;;;;;;4.57;1.20;;;18.20;60.30;;;;;;5001034;28;20042;-84
2022/03/08 15:34:44;;;;;;;1.65;1.13;;;18.10;60.30;;;;;;4989150;28;20076;-83
2022/03/08 15:37:14;;;;;;;2.47;1.05;;;18.50;60.20;;;;;;5007075;28;20141;-83
2022/03/08 15:39:42;;;;;;;1.55;1.05;;;18.60;59.90;;;;;;5008311;28;20141;-84
2022/03/08 15:42:10;;;;;;;2.80;1.48;;;18.60;60.40;;;;;;5007131;28;20038;-84
2022/03/08 15:44:39;;;;;;;2.72;1.20;;;18.70;60.10;;;;;;5001500;28;20526;-83
2022/03/08 15:47:10;;;;;;;1.73;1.23;;;19.00;59.80;;;;;;4987282;28;20536;-84
2022/03/08 15:49:39;;;;;;;1.83;1.08;;;19.30;59.00;;;;;;5002772;28;20076;-84
2022/03/08 15:52:07;;;;;;;3.40;1.20;;;19.10;58.80;;;;;;4976617;28;20106;-86
2022/03/08 15:54:37;;;;;;;2.20;1.20;;;19.10;58.70;;;;;;4978518;28;20147;-86
2022/03/08 15:57:05;;;;;;;1.60;1.30;;;19.40;58.70;;;;;;4990456;28;20407;-85
2022/03/08 15:59:33;;;;;;;1.90;1.30;;;19.40;58.20;;;;;;4974929;28;20049;-86
2022/03/08 16:02:01;;;;;;;1.50;1.15;;;19.40;58.80;;;;;;5007254;28;20054;-87
2022/03/08 16:04:30;;;;;;;3.35;1.60;;;19.00;59.30;;;;;;4973098;28;20046;-86
2022/03/08 16:06:59;;;;;;;2.17;1.20;;;17.40;60.20;;;;;;5008725;28;20487;-86
2022/03/08 16:09:27;;;;;;;3.25;1.40;;;16.00;61.10;;;;;;5004896;28;20050;-86
2022/03/08 16:11:57;;;;;;;2.63;1.13;;;15.20;63.20;;;;;;5006316;28;20050;-85
2022/03/08 16:14:28;;;;;;;1.92;1.08;;;14.70;64.40;;;;;;4994219;28;20054;-85
2022/03/08 16:16:56;;;;;;;2.08;1.40;;;14.20;65.60;;;;;;4991236;28;20039;-84
2022/03/08 16:19:24;;;;;;;3.95;1.40;;;14.00;66.60;;;;;;4973219;28;20077;-87
2022/03/08 16:21:53;;;;;;;2.25;1.23;;;13.50;66.40;;;;;;4996079;28;20373;-85
2022/03/08 16:24:21;;;;;;;1.83;1.13;;;13.20;67.40;;;;;;4998124;28;20395;-85
2022/03/08 16:26:49;;;;;;;3.25;1.92;;;13.10;68.20;;;;;;4989457;28;20046;-86
2022/03/08 16:29:19;;;;;;;1.80;1.48;;;12.90;68.80;;;;;;4989070;28;20049;-85
2022/03/08 16:31:48;;;;;;;2.50;1.23;;;12.70;69.40;;;;;;4971750;28;20048;-85
2022/03/08 16:34:17;;;;;;;1.92;1.20;;;12.60;69.80;;;;;;5002619;28;20059;-86
2022/03/08 16:36:45;;;;;;;2.38;1.52;;;12.40;70.10;;;;;;4983658;28;20055;-84
2022/03/08 16:39:13;;;;;;;2.70;1.25;;;12.30;71.00;;;;;;4970107;28;20062;-85
2022/03/08 16:41:42;;;;;;;1.70;1.38;;;12.20;71.70;;;;;;4969162;28;20078;-84
2022/03/08 16:44:16;;;;;;;1.92;1.65;;;12.00;71.70;;;;;;4968836;28;20053;-85
2022/03/08 16:46:48;;;;;;;2.75;1.70;;;11.90;72.10;;;;;;4984409;28;20047;-85
2022/03/08 16:49:17;;;;;;;5.47;2.63;;;11.70;72.50;;;;;;5002965;28;20043;-84
2022/03/08 16:51:46;;;;;;;7.20;5.15;;;11.70;72.80;;;;;;4966525;28;20042;-84
2022/03/08 16:54:14;;;;;;;7.05;4.65;;;11.60;73.20;;;;;;4968731;28;20133;-83
2022/03/08 16:56:42;;;;;;;3.88;2.55;;;11.50;73.70;;;;;;4969277;28;20380;-84
2022/03/08 16:59:10;;;;;;;4.05;2.78;;;11.30;74.00;;;;;;4968174;28;20069;-84
2022/03/08 17:01:39;;;;;;;4.50;3.35;;;11.30;75.10;;;;;;4972843;28;20122;-84
2022/03/08 17:04:12;;;;;;;4.53;3.05;;;11.20;75.00;;;;;;5005243;28;20046;-84
2022/03/08 17:06:41;;;;;;;4.28;2.97;;;11.00;75.80;;;;;;4996558;28;20049;-84
2022/03/08 17:09:11;;;;;;;4.32;2.50;;;11.00;75.80;;;;;;4986820;28;20530;-84
2022/03/08 17:11:39;;;;;;;4.15;2.40;;;10.80;75.20;;;;;;4967710;28;20062;-84
2022/03/08 17:14:07;;;;;;;3.53;2.50;;;10.70;75.60;;;;;;4983434;28;20505;-84
2022/03/08 17:16:36;;;;;;;5.00;2.80;;;10.70;75.70;;;;;;5000161;28;20047;-84
2022/03/08 17:19:04;;;;;;;5.90;3.15;;;10.50;75.90;;;;;;4980730;28;20039;-84
2022/03/08 17:21:34;;;;;;;3.95;2.53;;;10.50;76.20;;;;;;5000845;28;20061;-84
2022/03/08 17:24:02;;;;;;;4.55;2.80;;;10.50;76.50;;;;;;4965719;28;20038;-84
2022/03/08 17:26:31;;;;;;;3.13;2.40;;;10.50;76.30;;;;;;4966436;28;20045;-84
2022/03/08 17:28:59;;;;;;;3.53;2.65;;;10.50;76.40;;;;;;4968047;28;20051;-84
2022/03/08 17:31:28;;;;;;;8.48;3.85;;;10.40;76.80;;;;;;4970398;28;20851;-84
2022/03/08 17:33:57;;;;;;;6.20;3.03;;;10.40;76.70;;;;;;4972783;28;20046;-84
2022/03/08 17:36:25;;;;;;;4.28;3.13;;;10.30;76.90;;;;;;5004100;28;20046;-83
2022/03/08 17:38:55;;;;;;;4.32;2.75;;;10.30;76.70;;;;;;4970693;28;20069;-83
2022/03/08 17:41:23;;;;;;;5.97;2.80;;;10.20;77.00;;;;;;4988054;28;20038;-83
2022/03/08 17:43:51;;;;;;;4.72;2.97;;;10.10;76.90;;;;;;4987199;28;20431;-84
2022/03/08 17:46:22;;;;;;;3.47;2.80;;;10.00;77.30;;;;;;4977410;28;20132;-83
2022/03/08 17:48:51;;;;;;;4.85;2.78;;;9.90;76.70;;;;;;4988911;28;20498;-84
2022/03/08 17:51:19;;;;;;;2.45;2.20;;;9.90;77.20;;;;;;4971353;28;20042;-84
2022/03/08 17:53:48;;;;;;;4.20;2.60;;;9.90;77.00;;;;;;5021322;28;20048;-84
2022/03/08 17:56:18;;;;;;;6.07;3.00;;;10.00;77.40;;;;;;4986510;28;20310;-83
2022/03/08 17:58:46;;;;;;;5.25;3.70;;;9.80;77.50;;;;;;4988338;28;20504;-84
2022/03/08 18:01:15;;;;;;;4.78;3.42;;;9.60;78.00;;;;;;4973330;28;20089;-84
2022/03/08 18:03:49;;;;;;;7.78;4.55;;;9.40;78.40;;;;;;4986157;28;20042;-83
2022/03/08 18:06:17;;;;;;;7.22;5.00;;;9.40;78.80;;;;;;4975951;28;20050;-83
2022/03/08 18:08:45;;;;;;;6.13;4.75;;;9.40;79.10;;;;;;4989848;28;20074;-84
2022/03/08 18:11:14;;;;;;;5.82;4.90;;;9.60;79.60;;;;;;4985986;28;20547;-83
2022/03/08 18:13:49;;;;;;;6.03;4.78;;;9.60;79.20;;;;;;4996384;28;20507;-83
2022/03/08 18:16:17;;;;;;;6.82;4.10;;;9.60;79.30;;;;;;5019118;28;20038;-83
2022/03/08 18:18:45;;;;;;;5.35;3.90;;;9.60;79.30;;;;;;4989827;28;20145;-83
2022/03/08 18:21:14;;;;;;;6.57;3.20;;;9.40;79.10;;;;;;5001599;28;20651;-84
2022/03/08 18:23:42;;;;;;;6.10;3.75;;;9.40;78.70;;;;;;4971226;28;20045;-83
2022/03/08 18:26:10;;;;;;;7.20;4.88;;;9.40;79.10;;;;;;5000818;28;20050;-83
2022/03/08 18:28:38;;;;;;;8.45;5.97;;;9.20;79.10;;;;;;4985508;28;20066;-84
2022/03/08 18:31:08;;;;;;;7.32;5.03;;;9.20;79.50;;;;;;4971836;28;20050;-83
2022/03/08 18:33:40;;;;;;;6.70;4.57;;;9.30;79.70;;;;;;4970584;28;20124;-84
2022/03/08 18:36:09;;;;;;;8.68;5.55;;;9.40;79.50;;;;;;4991599;28;20129;-83
2022/03/08 18:38:40;;;;;;;6.38;4.20;;;9.40;79.80;;;;;;5008350;28;20595;-84
2022/03/08 18:41:09;;;;;;;5.95;4.03;;;9.00;79.10;;;;;;5003773;28;20054;-83